sensor_id;sensor_type;location;lat;lon;timestamp;P1;durP1;ratioP1;P2;durP2;ratioP2
19207;SDS011;9737;59.466;18.036;2024-01-15T00:00:08;2.47;;;2.22;;
19207;SDS011;9737;59.466;18.036;2024-01-15T00:02:38;4.88;;;2.83;;
19207;SDS011;9737;59.466;18.036;2024-01-15T00:05:06;7.18;;;2.25;;
19207;SDS011;9737;59.466;18.036;2024-01-15T00:07:35;2.97;;;2.30;;
19207;SDS011;9737;59.466;18.036;2024-01-15T00:10:03;2.58;;;2.22;;
19207;SDS011;9737;59.466;18.036;2024-01-15T00:12:32;6.63;;;2.40;;
19207;SDS011;9737;59.466;18.036;2024-01-15T00:15:00;8.27;;;2.40;;
19207;SDS011;9737;59.466;18.036;2024-01-15T00:17:27;2.47;;;2.20;;
19207;SDS011;9737;59.466;18.036;2024-01-15T00:19:57;5.55;;;2.40;;
19207;SDS011;9737;59.466;18.036;2024-01-15T00:22:25;3.03;;;2.40;;
19207;SDS011;9737;59.466;18.036;2024-01-15T00:24:53;2.33;;;2.20;;
19207;SDS011;9737;59.466;18.036;2024-01-15T00:27:21;9.10;;;2.50;;
19207;SDS011;9737;59.466;18.036;2024-01-15T00:29:50;3.00;;;2.33;;
19207;SDS011;9737;59.466;18.036;2024-01-15T00:32:18;4.28;;;2.72;;
19207;SDS011;9737;59.466;18.036;2024-01-15T00:34:46;2.60;;;2.40;;
19207;SDS011;9737;59.466;18.036;2024-01-15T00:37:16;5.88;;;2.38;;
19207;SDS011;9737;59.466;18.036;2024-01-15T00:39:44;9.50;;;2.50;;
19207;SDS011;9737;59.466;18.036;2024-01-15T00:42:12;2.30;;;2.20;;
19207;SDS011;9737;59.466;18.036;2024-01-15T00:44:40;9.70;;;2.42;;
19207;SDS011;9737;59.466;18.036;2024-01-15T00:47:08;3.58;;;2.30;;
19207;SDS011;9737;59.466;18.036;2024-01-15T00:49:36;5.65;;;2.10;;
19207;SDS011;9737;59.466;18.036;2024-01-15T00:52:04;3.15;;;2.20;;
19207;SDS011;9737;59.466;18.036;2024-01-15T00:54:33;3.42;;;2.15;;
19207;SDS011;9737;59.466;18.036;2024-01-15T00:57:02;3.70;;;2.30;;
19207;SDS011;9737;59.466;18.036;2024-01-15T00:59:30;5.45;;;2.45;;
19207;SDS011;9737;59.466;18.036;2024-01-15T01:01:58;2.38;;;2.28;;
19207;SDS011;9737;59.466;18.036;2024-01-15T01:04:27;3.25;;;2.50;;
19207;SDS011;9737;59.466;18.036;2024-01-15T01:06:55;4.80;;;2.45;;
19207;SDS011;9737;59.466;18.036;2024-01-15T01:09:23;3.63;;;2.40;;
19207;SDS011;9737;59.466;18.036;2024-01-15T01:11:52;4.53;;;2.35;;
19207;SDS011;9737;59.466;18.036;2024-01-15T01:14:20;5.57;;;2.40;;
19207;SDS011;9737;59.466;18.036;2024-01-15T01:16:48;3.22;;;2.25;;
19207;SDS011;9737;59.466;18.036;2024-01-15T01:19:16;4.30;;;2.20;;
19207;SDS011;9737;59.466;18.036;2024-01-15T01:21:45;2.65;;;2.25;;
19207;SDS011;9737;59.466;18.036;2024-01-15T01:24:13;4.22;;;2.17;;
19207;SDS011;9737;59.466;18.036;2024-01-15T01:26:41;5.95;;;2.47;;
19207;SDS011;9737;59.466;18.036;2024-01-15T01:29:10;2.67;;;2.20;;
19207;SDS011;9737;59.466;18.036;2024-01-15T01:31:41;2.55;;;2.35;;
19207;SDS011;9737;59.466;18.036;2024-01-15T01:34:10;5.38;;;2.63;;
19207;SDS011;9737;59.466;18.036;2024-01-15T01:36:38;2.70;;;2.30;;
19207;SDS011;9737;59.466;18.036;2024-01-15T01:39:06;3.53;;;2.30;;
19207;SDS011;9737;59.466;18.036;2024-01-15T01:41:34;2.88;;;2.60;;
19207;SDS011;9737;59.466;18.036;2024-01-15T01:44:03;3.22;;;2.33;;
19207;SDS011;9737;59.466;18.036;2024-01-15T01:46:32;3.65;;;2.53;;
19207;SDS011;9737;59.466;18.036;2024-01-15T01:49:05;2.45;;;2.30;;
19207;SDS011;9737;59.466;18.036;2024-01-15T01:51:35;6.93;;;2.25;;
19207;SDS011;9737;59.466;18.036;2024-01-15T01:54:04;3.42;;;2.40;;
19207;SDS011;9737;59.466;18.036;2024-01-15T01:56:34;4.03;;;2.63;;
19207;SDS011;9737;59.466;18.036;2024-01-15T01:59:03;2.53;;;2.33;;
19207;SDS011;9737;59.466;18.036;2024-01-15T02:01:33;4.00;;;2.30;;
19207;SDS011;9737;59.466;18.036;2024-01-15T02:04:01;3.95;;;2.42;;
19207;SDS011;9737;59.466;18.036;2024-01-15T02:06:31;5.90;;;2.22;;
19207;SDS011;9737;59.466;18.036;2024-01-15T02:09:00;2.60;;;2.40;;
19207;SDS011;9737;59.466;18.036;2024-01-15T02:11:29;4.10;;;2.20;;
19207;SDS011;9737;59.466;18.036;2024-01-15T02:13:57;4.68;;;2.60;;
19207;SDS011;9737;59.466;18.036;2024-01-15T02:16:25;3.95;;;2.25;;
19207;SDS011;9737;59.466;18.036;2024-01-15T02:18:54;4.57;;;2.40;;
19207;SDS011;9737;59.466;18.036;2024-01-15T02:21:22;5.15;;;2.30;;
19207;SDS011;9737;59.466;18.036;2024-01-15T02:23:54;4.03;;;2.42;;
19207;SDS011;9737;59.466;18.036;2024-01-15T02:26:22;3.88;;;2.25;;
19207;SDS011;9737;59.466;18.036;2024-01-15T02:28:50;4.28;;;2.40;;
19207;SDS011;9737;59.466;18.036;2024-01-15T02:31:19;3.33;;;2.40;;
19207;SDS011;9737;59.466;18.036;2024-01-15T02:33:47;5.28;;;2.38;;
19207;SDS011;9737;59.466;18.036;2024-01-15T02:36:15;3.60;;;2.53;;
19207;SDS011;9737;59.466;18.036;2024-01-15T02:38:44;6.45;;;2.65;;
19207;SDS011;9737;59.466;18.036;2024-01-15T02:41:13;2.63;;;2.25;;
19207;SDS011;9737;59.466;18.036;2024-01-15T02:43:41;2.40;;;2.30;;
19207;SDS011;9737;59.466;18.036;2024-01-15T02:46:09;5.38;;;2.25;;
19207;SDS011;9737;59.466;18.036;2024-01-15T02:48:37;7.80;;;2.58;;
19207;SDS011;9737;59.466;18.036;2024-01-15T02:51:05;5.13;;;2.40;;
19207;SDS011;9737;59.466;18.036;2024-01-15T02:53:33;2.35;;;2.20;;
19207;SDS011;9737;59.466;18.036;2024-01-15T02:56:00;2.50;;;2.30;;
19207;SDS011;9737;59.466;18.036;2024-01-15T02:58:30;3.72;;;2.53;;
19207;SDS011;9737;59.466;18.036;2024-01-15T03:00:58;4.13;;;2.60;;
19207;SDS011;9737;59.466;18.036;2024-01-15T03:03:25;12.00;;;2.55;;
19207;SDS011;9737;59.466;18.036;2024-01-15T03:05:54;2.83;;;2.63;;
19207;SDS011;9737;59.466;18.036;2024-01-15T03:08:22;4.13;;;2.40;;
19207;SDS011;9737;59.466;18.036;2024-01-15T03:10:49;4.22;;;2.60;;
19207;SDS011;9737;59.466;18.036;2024-01-15T03:13:17;8.13;;;2.60;;
19207;SDS011;9737;59.466;18.036;2024-01-15T03:15:47;7.72;;;2.78;;
19207;SDS011;9737;59.466;18.036;2024-01-15T03:18:15;6.78;;;2.75;;
19207;SDS011;9737;59.466;18.036;2024-01-15T03:20:43;2.97;;;2.58;;
19207;SDS011;9737;59.466;18.036;2024-01-15T03:23:10;2.80;;;2.60;;
19207;SDS011;9737;59.466;18.036;2024-01-15T03:25:38;3.85;;;2.70;;
19207;SDS011;9737;59.466;18.036;2024-01-15T03:28:06;2.90;;;2.70;;
19207;SDS011;9737;59.466;18.036;2024-01-15T03:30:34;4.97;;;2.80;;
19207;SDS011;9737;59.466;18.036;2024-01-15T03:33:07;5.28;;;2.70;;
19207;SDS011;9737;59.466;18.036;2024-01-15T03:35:34;2.88;;;2.67;;
19207;SDS011;9737;59.466;18.036;2024-01-15T03:38:02;3.08;;;2.70;;
19207;SDS011;9737;59.466;18.036;2024-01-15T03:40:30;3.28;;;2.70;;
19207;SDS011;9737;59.466;18.036;2024-01-15T03:42:58;3.45;;;2.80;;
19207;SDS011;9737;59.466;18.036;2024-01-15T03:45:26;2.80;;;2.60;;
19207;SDS011;9737;59.466;18.036;2024-01-15T03:47:54;10.75;;;2.80;;
19207;SDS011;9737;59.466;18.036;2024-01-15T03:50:23;2.72;;;2.53;;
19207;SDS011;9737;59.466;18.036;2024-01-15T03:52:51;2.53;;;2.42;;
19207;SDS011;9737;59.466;18.036;2024-01-15T03:55:19;5.00;;;2.67;;
19207;SDS011;9737;59.466;18.036;2024-01-15T03:57:47;4.05;;;2.72;;
19207;SDS011;9737;59.466;18.036;2024-01-15T04:00:16;3.00;;;2.80;;
19207;SDS011;9737;59.466;18.036;2024-01-15T04:02:44;2.80;;;2.60;;
19207;SDS011;9737;59.466;18.036;2024-01-15T04:05:12;7.82;;;2.75;;
19207;SDS011;9737;59.466;18.036;2024-01-15T04:07:41;2.70;;;2.50;;
19207;SDS011;9737;59.466;18.036;2024-01-15T04:10:08;3.88;;;2.42;;
19207;SDS011;9737;59.466;18.036;2024-01-15T04:12:36;5.07;;;3.00;;
19207;SDS011;9737;59.466;18.036;2024-01-15T04:15:04;3.35;;;2.83;;
19207;SDS011;9737;59.466;18.036;2024-01-15T04:17:33;4.30;;;2.95;;
19207;SDS011;9737;59.466;18.036;2024-01-15T04:20:01;3.47;;;2.65;;
19207;SDS011;9737;59.466;18.036;2024-01-15T04:22:29;6.07;;;2.80;;
19207;SDS011;9737;59.466;18.036;2024-01-15T04:24:58;2.88;;;2.67;;
19207;SDS011;9737;59.466;18.036;2024-01-15T04:27:26;3.90;;;2.92;;
19207;SDS011;9737;59.466;18.036;2024-01-15T04:29:54;2.90;;;2.70;;
19207;SDS011;9737;59.466;18.036;2024-01-15T04:32:22;3.17;;;2.72;;
19207;SDS011;9737;59.466;18.036;2024-01-15T04:34:50;4.55;;;2.70;;
19207;SDS011;9737;59.466;18.036;2024-01-15T04:37:18;3.65;;;3.00;;
19207;SDS011;9737;59.466;18.036;2024-01-15T04:39:45;3.38;;;2.63;;
19207;SDS011;9737;59.466;18.036;2024-01-15T04:42:15;4.13;;;2.67;;
19207;SDS011;9737;59.466;18.036;2024-01-15T04:44:42;3.40;;;2.80;;
19207;SDS011;9737;59.466;18.036;2024-01-15T04:47:10;7.00;;;2.92;;
19207;SDS011;9737;59.466;18.036;2024-01-15T04:49:38;2.92;;;2.65;;
19207;SDS011;9737;59.466;18.036;2024-01-15T04:52:06;4.10;;;2.83;;
19207;SDS011;9737;59.466;18.036;2024-01-15T04:54:36;3.72;;;2.72;;
19207;SDS011;9737;59.466;18.036;2024-01-15T04:57:04;3.03;;;2.72;;
19207;SDS011;9737;59.466;18.036;2024-01-15T04:59:33;3.53;;;2.90;;
19207;SDS011;9737;59.466;18.036;2024-01-15T05:02:01;7.30;;;2.97;;
19207;SDS011;9737;59.466;18.036;2024-01-15T05:04:29;3.10;;;2.90;;
19207;SDS011;9737;59.466;18.036;2024-01-15T05:06:57;3.42;;;2.70;;
19207;SDS011;9737;59.466;18.036;2024-01-15T05:09:25;3.47;;;3.10;;
19207;SDS011;9737;59.466;18.036;2024-01-15T05:11:56;3.17;;;2.80;;
19207;SDS011;9737;59.466;18.036;2024-01-15T05:14:24;3.20;;;2.90;;
19207;SDS011;9737;59.466;18.036;2024-01-15T05:16:53;5.13;;;2.80;;
19207;SDS011;9737;59.466;18.036;2024-01-15T05:19:21;3.28;;;3.03;;
19207;SDS011;9737;59.466;18.036;2024-01-15T05:21:49;3.40;;;3.10;;
19207;SDS011;9737;59.466;18.036;2024-01-15T05:24:17;3.58;;;2.80;;
19207;SDS011;9737;59.466;18.036;2024-01-15T05:26:45;7.40;;;3.35;;
19207;SDS011;9737;59.466;18.036;2024-01-15T05:29:13;4.10;;;3.40;;
19207;SDS011;9737;59.466;18.036;2024-01-15T05:31:41;4.65;;;3.20;;
19207;SDS011;9737;59.466;18.036;2024-01-15T05:34:10;3.47;;;3.10;;
19207;SDS011;9737;59.466;18.036;2024-01-15T05:36:38;3.67;;;2.90;;
19207;SDS011;9737;59.466;18.036;2024-01-15T05:39:06;5.57;;;2.80;;
19207;SDS011;9737;59.466;18.036;2024-01-15T05:41:34;3.03;;;2.80;;
19207;SDS011;9737;59.466;18.036;2024-01-15T05:44:02;3.05;;;2.75;;
19207;SDS011;9737;59.466;18.036;2024-01-15T05:46:30;4.57;;;3.00;;
19207;SDS011;9737;59.466;18.036;2024-01-15T05:48:57;3.35;;;2.90;;
19207;SDS011;9737;59.466;18.036;2024-01-15T05:51:27;11.35;;;2.95;;
19207;SDS011;9737;59.466;18.036;2024-01-15T05:53:55;4.68;;;2.95;;
19207;SDS011;9737;59.466;18.036;2024-01-15T05:56:23;3.53;;;2.90;;
19207;SDS011;9737;59.466;18.036;2024-01-15T05:58:52;3.97;;;3.35;;
19207;SDS011;9737;59.466;18.036;2024-01-15T06:01:19;3.17;;;2.88;;
19207;SDS011;9737;59.466;18.036;2024-01-15T06:03:47;3.35;;;3.03;;
19207;SDS011;9737;59.466;18.036;2024-01-15T06:06:15;3.45;;;2.90;;
19207;SDS011;9737;59.466;18.036;2024-01-15T06:08:45;6.80;;;3.33;;
19207;SDS011;9737;59.466;18.036;2024-01-15T06:11:13;4.75;;;3.15;;
19207;SDS011;9737;59.466;18.036;2024-01-15T06:13:40;5.15;;;3.33;;
19207;SDS011;9737;59.466;18.036;2024-01-15T06:16:13;4.47;;;3.10;;
19207;SDS011;9737;59.466;18.036;2024-01-15T06:18:41;4.38;;;3.70;;
19207;SDS011;9737;59.466;18.036;2024-01-15T06:21:08;10.88;;;4.15;;
19207;SDS011;9737;59.466;18.036;2024-01-15T06:23:39;4.65;;;3.42;;
19207;SDS011;9737;59.466;18.036;2024-01-15T06:26:08;4.78;;;3.70;;
19207;SDS011;9737;59.466;18.036;2024-01-15T06:28:36;11.07;;;5.20;;
19207;SDS011;9737;59.466;18.036;2024-01-15T06:31:05;5.35;;;3.85;;
19207;SDS011;9737;59.466;18.036;2024-01-15T06:33:33;9.25;;;4.97;;
19207;SDS011;9737;59.466;18.036;2024-01-15T06:36:02;7.68;;;5.03;;
19207;SDS011;9737;59.466;18.036;2024-01-15T06:38:30;4.88;;;4.05;;
19207;SDS011;9737;59.466;18.036;2024-01-15T06:40:58;6.13;;;3.63;;
19207;SDS011;9737;59.466;18.036;2024-01-15T06:43:28;5.88;;;3.55;;
19207;SDS011;9737;59.466;18.036;2024-01-15T06:45:55;5.60;;;3.53;;
19207;SDS011;9737;59.466;18.036;2024-01-15T06:48:23;9.00;;;4.22;;
19207;SDS011;9737;59.466;18.036;2024-01-15T06:50:51;4.18;;;3.40;;
19207;SDS011;9737;59.466;18.036;2024-01-15T06:53:19;6.75;;;4.10;;
19207;SDS011;9737;59.466;18.036;2024-01-15T06:55:47;5.25;;;3.30;;
19207;SDS011;9737;59.466;18.036;2024-01-15T06:58:15;3.38;;;3.15;;
19207;SDS011;9737;59.466;18.036;2024-01-15T07:00:44;3.47;;;3.17;;
19207;SDS011;9737;59.466;18.036;2024-01-15T07:03:12;4.70;;;2.97;;
19207;SDS011;9737;59.466;18.036;2024-01-15T07:05:42;5.85;;;3.15;;
19207;SDS011;9737;59.466;18.036;2024-01-15T07:08:10;4.68;;;3.30;;
19207;SDS011;9737;59.466;18.036;2024-01-15T07:10:38;6.25;;;2.95;;
19207;SDS011;9737;59.466;18.036;2024-01-15T07:13:06;4.82;;;3.20;;
19207;SDS011;9737;59.466;18.036;2024-01-15T07:15:34;3.20;;;2.90;;
19207;SDS011;9737;59.466;18.036;2024-01-15T07:18:04;3.22;;;2.90;;
19207;SDS011;9737;59.466;18.036;2024-01-15T07:20:32;3.25;;;3.00;;
19207;SDS011;9737;59.466;18.036;2024-01-15T07:23:04;4.68;;;2.65;;
19207;SDS011;9737;59.466;18.036;2024-01-15T07:25:32;4.38;;;3.00;;
19207;SDS011;9737;59.466;18.036;2024-01-15T07:28:00;3.55;;;3.20;;
19207;SDS011;9737;59.466;18.036;2024-01-15T07:30:28;6.85;;;3.03;;
19207;SDS011;9737;59.466;18.036;2024-01-15T07:32:56;5.45;;;2.53;;
19207;SDS011;9737;59.466;18.036;2024-01-15T07:35:25;4.45;;;2.63;;
19207;SDS011;9737;59.466;18.036;2024-01-15T07:37:53;2.95;;;2.72;;
19207;SDS011;9737;59.466;18.036;2024-01-15T07:40:21;3.67;;;3.00;;
19207;SDS011;9737;59.466;18.036;2024-01-15T07:42:49;4.67;;;2.70;;
19207;SDS011;9737;59.466;18.036;2024-01-15T07:45:17;7.47;;;3.00;;
19207;SDS011;9737;59.466;18.036;2024-01-15T07:47:45;2.90;;;2.70;;
19207;SDS011;9737;59.466;18.036;2024-01-15T07:50:13;11.18;;;2.65;;
19207;SDS011;9737;59.466;18.036;2024-01-15T07:52:42;4.23;;;2.53;;
19207;SDS011;9737;59.466;18.036;2024-01-15T07:55:10;3.77;;;2.60;;
19207;SDS011;9737;59.466;18.036;2024-01-15T07:57:38;3.05;;;2.75;;
19207;SDS011;9737;59.466;18.036;2024-01-15T08:00:07;3.67;;;2.80;;
19207;SDS011;9737;59.466;18.036;2024-01-15T08:02:36;2.70;;;2.40;;
19207;SDS011;9737;59.466;18.036;2024-01-15T08:05:04;6.68;;;2.42;;
19207;SDS011;9737;59.466;18.036;2024-01-15T08:07:32;3.05;;;2.70;;
19207;SDS011;9737;59.466;18.036;2024-01-15T08:10:01;2.73;;;2.57;;
19207;SDS011;9737;59.466;18.036;2024-01-15T08:12:29;7.13;;;2.70;;
19207;SDS011;9737;59.466;18.036;2024-01-15T08:14:57;3.83;;;2.35;;
19207;SDS011;9737;59.466;18.036;2024-01-15T08:17:25;3.30;;;2.40;;
19207;SDS011;9737;59.466;18.036;2024-01-15T08:19:54;3.70;;;2.30;;
19207;SDS011;9737;59.466;18.036;2024-01-15T08:22:23;2.40;;;2.28;;
19207;SDS011;9737;59.466;18.036;2024-01-15T08:24:51;4.07;;;2.70;;
19207;SDS011;9737;59.466;18.036;2024-01-15T08:27:23;4.63;;;2.33;;
19207;SDS011;9737;59.466;18.036;2024-01-15T08:29:52;2.70;;;2.47;;
19207;SDS011;9737;59.466;18.036;2024-01-15T08:32:19;5.82;;;2.30;;
19207;SDS011;9737;59.466;18.036;2024-01-15T08:34:47;2.35;;;2.25;;
19207;SDS011;9737;59.466;18.036;2024-01-15T08:37:18;2.95;;;2.25;;
19207;SDS011;9737;59.466;18.036;2024-01-15T08:39:47;2.47;;;2.38;;
19207;SDS011;9737;59.466;18.036;2024-01-15T08:42:17;5.85;;;2.78;;
19207;SDS011;9737;59.466;18.036;2024-01-15T08:44:46;3.97;;;2.65;;
19207;SDS011;9737;59.466;18.036;2024-01-15T08:47:14;5.55;;;3.70;;
19207;SDS011;9737;59.466;18.036;2024-01-15T08:49:42;5.45;;;3.00;;
19207;SDS011;9737;59.466;18.036;2024-01-15T08:52:12;3.78;;;2.60;;
19207;SDS011;9737;59.466;18.036;2024-01-15T08:54:41;4.35;;;2.55;;
19207;SDS011;9737;59.466;18.036;2024-01-15T08:57:09;2.83;;;2.60;;
19207;SDS011;9737;59.466;18.036;2024-01-15T08:59:38;6.53;;;2.78;;
19207;SDS011;9737;59.466;18.036;2024-01-15T09:02:07;2.50;;;2.33;;
19207;SDS011;9737;59.466;18.036;2024-01-15T09:04:35;3.33;;;2.45;;
19207;SDS011;9737;59.466;18.036;2024-01-15T09:07:03;3.67;;;2.60;;
19207;SDS011;9737;59.466;18.036;2024-01-15T09:09:31;2.35;;;2.25;;
19207;SDS011;9737;59.466;18.036;2024-01-15T09:11:59;4.63;;;2.60;;
19207;SDS011;9737;59.466;18.036;2024-01-15T09:14:27;3.00;;;2.50;;
19207;SDS011;9737;59.466;18.036;2024-01-15T09:17:03;4.70;;;2.80;;
19207;SDS011;9737;59.466;18.036;2024-01-15T09:19:33;4.90;;;2.50;;
19207;SDS011;9737;59.466;18.036;2024-01-15T09:22:01;2.70;;;2.50;;
19207;SDS011;9737;59.466;18.036;2024-01-15T09:24:29;2.60;;;2.40;;
19207;SDS011;9737;59.466;18.036;2024-01-15T09:26:57;3.92;;;2.53;;
19207;SDS011;9737;59.466;18.036;2024-01-15T09:29:25;5.00;;;2.47;;
19207;SDS011;9737;59.466;18.036;2024-01-15T09:31:52;2.80;;;2.60;;
19207;SDS011;9737;59.466;18.036;2024-01-15T09:34:20;2.95;;;2.75;;
19207;SDS011;9737;59.466;18.036;2024-01-15T09:36:50;2.63;;;2.43;;
19207;SDS011;9737;59.466;18.036;2024-01-15T09:39:18;5.32;;;2.65;;
19207;SDS011;9737;59.466;18.036;2024-01-15T09:41:46;2.95;;;2.65;;
19207;SDS011;9737;59.466;18.036;2024-01-15T09:44:16;3.15;;;2.30;;
19207;SDS011;9737;59.466;18.036;2024-01-15T09:46:45;4.75;;;2.75;;
19207;SDS011;9737;59.466;18.036;2024-01-15T09:49:16;2.70;;;2.50;;
19207;SDS011;9737;59.466;18.036;2024-01-15T09:51:45;5.18;;;2.70;;
19207;SDS011;9737;59.466;18.036;2024-01-15T09:54:29;2.83;;;2.63;;
19207;SDS011;9737;59.466;18.036;2024-01-15T09:56:58;6.10;;;2.50;;
19207;SDS011;9737;59.466;18.036;2024-01-15T09:59:27;2.63;;;2.42;;
19207;SDS011;9737;59.466;18.036;2024-01-15T10:01:55;2.45;;;2.28;;
19207;SDS011;9737;59.466;18.036;2024-01-15T10:04:26;5.15;;;2.50;;
19207;SDS011;9737;59.466;18.036;2024-01-15T10:06:57;2.80;;;2.60;;
19207;SDS011;9737;59.466;18.036;2024-01-15T10:09:30;2.60;;;2.40;;
19207;SDS011;9737;59.466;18.036;2024-01-15T10:11:58;5.57;;;2.45;;
19207;SDS011;9737;59.466;18.036;2024-01-15T10:14:27;3.53;;;2.80;;
19207;SDS011;9737;59.466;18.036;2024-01-15T10:16:54;3.20;;;2.90;;
19207;SDS011;9737;59.466;18.036;2024-01-15T10:19:22;4.05;;;2.80;;
19207;SDS011;9737;59.466;18.036;2024-01-15T10:21:50;3.80;;;2.60;;
19207;SDS011;9737;59.466;18.036;2024-01-15T10:24:18;3.80;;;2.45;;
19207;SDS011;9737;59.466;18.036;2024-01-15T10:26:48;2.90;;;2.70;;
19207;SDS011;9737;59.466;18.036;2024-01-15T10:29:15;5.28;;;3.10;;
19207;SDS011;9737;59.466;18.036;2024-01-15T10:31:43;3.10;;;2.53;;
19207;SDS011;9737;59.466;18.036;2024-01-15T10:34:12;5.32;;;2.70;;
19207;SDS011;9737;59.466;18.036;2024-01-15T10:36:45;2.50;;;2.30;;
19207;SDS011;9737;59.466;18.036;2024-01-15T10:39:14;3.15;;;2.28;;
19207;SDS011;9737;59.466;18.036;2024-01-15T10:41:42;3.53;;;2.50;;
19207;SDS011;9737;59.466;18.036;2024-01-15T10:44:12;2.88;;;2.65;;
19207;SDS011;9737;59.466;18.036;2024-01-15T10:46:40;7.05;;;2.85;;
19207;SDS011;9737;59.466;18.036;2024-01-15T10:49:09;4.15;;;2.50;;
19207;SDS011;9737;59.466;18.036;2024-01-15T10:51:38;2.75;;;2.55;;
19207;SDS011;9737;59.466;18.036;2024-01-15T10:54:08;3.38;;;2.42;;
19207;SDS011;9737;59.466;18.036;2024-01-15T10:56:37;3.65;;;2.45;;
19207;SDS011;9737;59.466;18.036;2024-01-15T10:59:06;2.72;;;2.42;;
19207;SDS011;9737;59.466;18.036;2024-01-15T11:01:38;3.03;;;2.75;;
19207;SDS011;9737;59.466;18.036;2024-01-15T11:04:07;3.00;;;2.58;;
19207;SDS011;9737;59.466;18.036;2024-01-15T11:06:41;4.05;;;2.30;;
19207;SDS011;9737;59.466;18.036;2024-01-15T11:09:10;2.72;;;2.33;;
19207;SDS011;9737;59.466;18.036;2024-01-15T11:11:43;2.67;;;2.40;;
19207;SDS011;9737;59.466;18.036;2024-01-15T11:17:02;2.70;;;2.50;;
19207;SDS011;9737;59.466;18.036;2024-01-15T11:19:38;4.72;;;2.60;;
19207;SDS011;9737;59.466;18.036;2024-01-15T11:22:10;3.45;;;2.45;;
19207;SDS011;9737;59.466;18.036;2024-01-15T11:24:55;3.92;;;2.40;;
19207;SDS011;9737;59.466;18.036;2024-01-15T11:27:55;2.97;;;2.30;;
19207;SDS011;9737;59.466;18.036;2024-01-15T11:30:24;2.38;;;2.28;;
19207;SDS011;9737;59.466;18.036;2024-01-15T11:32:54;2.90;;;2.70;;
19207;SDS011;9737;59.466;18.036;2024-01-15T11:35:22;4.13;;;2.70;;
19207;SDS011;9737;59.466;18.036;2024-01-15T11:37:57;3.03;;;2.78;;
19207;SDS011;9737;59.466;18.036;2024-01-15T11:40:38;2.75;;;2.50;;
19207;SDS011;9737;59.466;18.036;2024-01-15T11:43:09;3.53;;;2.65;;
19207;SDS011;9737;59.466;18.036;2024-01-15T11:45:39;2.50;;;2.30;;
19207;SDS011;9737;59.466;18.036;2024-01-15T11:50:48;6.55;;;2.50;;
19207;SDS011;9737;59.466;18.036;2024-01-15T11:53:21;10.77;;;4.95;;
19207;SDS011;9737;59.466;18.036;2024-01-15T11:55:57;22.00;;;8.05;;
19207;SDS011;9737;59.466;18.036;2024-01-15T11:58:26;2.80;;;2.60;;
19207;SDS011;9737;59.466;18.036;2024-01-15T12:00:54;6.10;;;3.75;;
19207;SDS011;9737;59.466;18.036;2024-01-15T12:03:24;5.68;;;3.65;;
19207;SDS011;9737;59.466;18.036;2024-01-15T12:05:52;2.78;;;2.60;;
19207;SDS011;9737;59.466;18.036;2024-01-15T12:08:21;3.50;;;2.78;;
19207;SDS011;9737;59.466;18.036;2024-01-15T12:10:49;4.30;;;2.60;;
19207;SDS011;9737;59.466;18.036;2024-01-15T12:13:17;4.32;;;2.75;;
19207;SDS011;9737;59.466;18.036;2024-01-15T12:15:46;4.55;;;2.33;;
19207;SDS011;9737;59.466;18.036;2024-01-15T12:18:16;3.40;;;2.45;;
19207;SDS011;9737;59.466;18.036;2024-01-15T12:20:47;3.45;;;2.92;;
19207;SDS011;9737;59.466;18.036;2024-01-15T12:23:16;4.15;;;2.53;;
19207;SDS011;9737;59.466;18.036;2024-01-15T12:25:44;2.75;;;2.55;;
19207;SDS011;9737;59.466;18.036;2024-01-15T12:28:13;2.58;;;2.40;;
19207;SDS011;9737;59.466;18.036;2024-01-15T12:30:46;3.28;;;2.45;;
19207;SDS011;9737;59.466;18.036;2024-01-15T12:33:17;5.82;;;2.75;;
19207;SDS011;9737;59.466;18.036;2024-01-15T12:35:46;4.72;;;2.40;;
19207;SDS011;9737;59.466;18.036;2024-01-15T12:38:15;2.63;;;2.42;;
19207;SDS011;9737;59.466;18.036;2024-01-15T12:40:43;2.60;;;2.40;;
19207;SDS011;9737;59.466;18.036;2024-01-15T12:43:14;2.63;;;2.42;;
19207;SDS011;9737;59.466;18.036;2024-01-15T12:45:42;2.80;;;2.53;;
19207;SDS011;9737;59.466;18.036;2024-01-15T12:48:10;2.60;;;2.40;;
19207;SDS011;9737;59.466;18.036;2024-01-15T12:50:40;2.85;;;2.58;;
19207;SDS011;9737;59.466;18.036;2024-01-15T12:53:11;2.67;;;2.47;;
19207;SDS011;9737;59.466;18.036;2024-01-15T12:55:39;4.55;;;2.50;;
19207;SDS011;9737;59.466;18.036;2024-01-15T12:58:07;3.47;;;2.83;;
19207;SDS011;9737;59.466;18.036;2024-01-15T13:00:35;3.45;;;2.50;;
19207;SDS011;9737;59.466;18.036;2024-01-15T13:03:04;2.72;;;2.50;;
19207;SDS011;9737;59.466;18.036;2024-01-15T13:05:32;2.88;;;2.53;;
19207;SDS011;9737;59.466;18.036;2024-01-15T13:08:03;3.03;;;2.47;;
19207;SDS011;9737;59.466;18.036;2024-01-15T13:10:32;6.20;;;2.85;;
19207;SDS011;9737;59.466;18.036;2024-01-15T13:13:00;2.70;;;2.50;;
19207;SDS011;9737;59.466;18.036;2024-01-15T13:15:28;2.90;;;2.60;;
19207;SDS011;9737;59.466;18.036;2024-01-15T13:17:56;3.15;;;2.85;;
19207;SDS011;9737;59.466;18.036;2024-01-15T13:20:24;8.20;;;2.80;;
19207;SDS011;9737;59.466;18.036;2024-01-15T13:22:52;2.63;;;2.42;;
19207;SDS011;9737;59.466;18.036;2024-01-15T13:25:20;6.22;;;2.55;;
19207;SDS011;9737;59.466;18.036;2024-01-15T13:27:49;3.70;;;2.60;;
19207;SDS011;9737;59.466;18.036;2024-01-15T13:30:17;3.15;;;2.78;;
19207;SDS011;9737;59.466;18.036;2024-01-15T13:32:45;2.75;;;2.58;;
19207;SDS011;9737;59.466;18.036;2024-01-15T13:35:13;7.03;;;2.70;;
19207;SDS011;9737;59.466;18.036;2024-01-15T13:37:41;5.00;;;2.60;;
19207;SDS011;9737;59.466;18.036;2024-01-15T13:40:09;6.43;;;2.70;;
19207;SDS011;9737;59.466;18.036;2024-01-15T13:42:44;2.78;;;2.58;;
19207;SDS011;9737;59.466;18.036;2024-01-15T13:45:15;2.72;;;2.53;;
19207;SDS011;9737;59.466;18.036;2024-01-15T13:47:43;2.95;;;2.63;;
19207;SDS011;9737;59.466;18.036;2024-01-15T13:50:11;3.15;;;2.72;;
19207;SDS011;9737;59.466;18.036;2024-01-15T13:52:40;3.65;;;2.70;;
19207;SDS011;9737;59.466;18.036;2024-01-15T13:55:08;3.80;;;2.35;;
19207;SDS011;9737;59.466;18.036;2024-01-15T13:57:36;2.70;;;2.50;;
19207;SDS011;9737;59.466;18.036;2024-01-15T14:00:05;3.13;;;2.50;;
19207;SDS011;9737;59.466;18.036;2024-01-15T14:02:39;3.35;;;2.70;;
19207;SDS011;9737;59.466;18.036;2024-01-15T14:05:08;2.60;;;2.40;;
19207;SDS011;9737;59.466;18.036;2024-01-15T14:07:39;2.97;;;2.60;;
19207;SDS011;9737;59.466;18.036;2024-01-15T14:10:07;3.20;;;2.70;;
19207;SDS011;9737;59.466;18.036;2024-01-15T14:12:35;3.30;;;2.77;;
19207;SDS011;9737;59.466;18.036;2024-01-15T14:15:03;3.67;;;2.70;;
19207;SDS011;9737;59.466;18.036;2024-01-15T14:17:32;4.00;;;2.90;;
19207;SDS011;9737;59.466;18.036;2024-01-15T14:20:01;3.47;;;2.95;;
19207;SDS011;9737;59.466;18.036;2024-01-15T14:22:32;3.83;;;2.60;;
19207;SDS011;9737;59.466;18.036;2024-01-15T14:24:59;4.55;;;3.25;;
19207;SDS011;9737;59.466;18.036;2024-01-15T14:27:27;6.70;;;3.90;;
19207;SDS011;9737;59.466;18.036;2024-01-15T14:29:55;6.23;;;4.13;;
19207;SDS011;9737;59.466;18.036;2024-01-15T14:32:24;7.90;;;5.70;;
19207;SDS011;9737;59.466;18.036;2024-01-15T14:34:51;7.90;;;3.60;;
19207;SDS011;9737;59.466;18.036;2024-01-15T14:37:21;6.27;;;3.33;;
19207;SDS011;9737;59.466;18.036;2024-01-15T14:39:48;3.67;;;3.37;;
19207;SDS011;9737;59.466;18.036;2024-01-15T14:42:17;5.13;;;2.50;;
19207;SDS011;9737;59.466;18.036;2024-01-15T14:44:45;4.75;;;2.90;;
19207;SDS011;9737;59.466;18.036;2024-01-15T14:47:13;3.10;;;2.90;;
19207;SDS011;9737;59.466;18.036;2024-01-15T14:49:41;4.88;;;2.90;;
19207;SDS011;9737;59.466;18.036;2024-01-15T14:52:09;4.87;;;3.00;;
19207;SDS011;9737;59.466;18.036;2024-01-15T14:54:38;5.47;;;2.93;;
19207;SDS011;9737;59.466;18.036;2024-01-15T14:57:06;4.77;;;3.00;;
19207;SDS011;9737;59.466;18.036;2024-01-15T14:59:34;6.20;;;3.50;;
19207;SDS011;9737;59.466;18.036;2024-01-15T15:02:01;6.45;;;3.38;;